createdAt,value
2022-10-20T00:00:31.529Z,5.67
2022-10-20T00:02:59.050Z,5.77
2022-10-20T00:05:26.555Z,4.97
2022-10-20T00:07:54.021Z,5.50
2022-10-20T00:10:21.484Z,5.67
2022-10-20T00:12:50.304Z,4.80
2022-10-20T00:15:17.932Z,5.30
2022-10-20T00:17:46.353Z,6.63
2022-10-20T00:22:42.247Z,4.83
2022-10-20T00:25:10.135Z,5.07
2022-10-20T00:27:37.706Z,3.93
2022-10-20T00:30:07.380Z,5.27
2022-10-20T00:32:35.085Z,5.57
2022-10-20T00:35:02.710Z,4.60
2022-10-20T00:37:30.163Z,5.03
2022-10-20T00:39:57.641Z,4.50
2022-10-20T00:42:25.077Z,4.87
2022-10-20T00:44:57.208Z,5.07
2022-10-20T00:47:35.146Z,4.50
2022-10-20T00:50:06.804Z,4.50
2022-10-20T00:52:35.126Z,4.20
2022-10-20T00:55:03.401Z,4.73
2022-10-20T00:57:31.938Z,4.70
2022-10-20T00:59:59.497Z,4.80
2022-10-20T01:02:27.031Z,4.80
2022-10-20T01:04:55.915Z,5.10
2022-10-20T01:07:23.534Z,4.60
2022-10-20T01:09:51.211Z,4.60
2022-10-20T01:12:27.341Z,5.37
2022-10-20T01:15:00.519Z,4.03
2022-10-20T01:17:34.869Z,4.57
2022-10-20T01:20:43.231Z,5.30
2022-10-20T01:23:24.435Z,4.57
2022-10-20T01:26:04.866Z,3.97
2022-10-20T01:28:38.812Z,5.30
2022-10-20T01:31:15.437Z,5.53
2022-10-20T01:33:44.714Z,5.37
2022-10-20T01:36:14.682Z,5.13
2022-10-20T01:38:45.092Z,4.53
2022-10-20T01:41:15.653Z,4.93
2022-10-20T01:43:46.628Z,4.73
2022-10-20T01:46:15.230Z,4.00
2022-10-20T01:48:42.882Z,4.80
2022-10-20T01:51:10.992Z,4.73
2022-10-20T01:53:38.784Z,4.07
2022-10-20T01:56:08.147Z,3.97
2022-10-20T01:59:01.614Z,4.53
2022-10-20T02:01:39.048Z,4.57
2022-10-20T02:04:08.283Z,5.07
2022-10-20T02:06:41.293Z,5.10
2022-10-20T02:09:14.178Z,4.80
2022-10-20T02:11:46.288Z,4.33
2022-10-20T02:14:16.878Z,4.30
2022-10-20T02:16:48.408Z,4.50
2022-10-20T02:19:18.678Z,4.70
2022-10-20T02:21:46.654Z,4.20
2022-10-20T02:24:15.953Z,4.33
2022-10-20T02:26:44.598Z,4.60
2022-10-20T02:29:17.003Z,4.83
2022-10-20T02:31:45.088Z,5.13
2022-10-20T02:34:13.280Z,5.53
2022-10-20T02:36:42.454Z,3.73
2022-10-20T02:39:10.802Z,5.50
2022-10-20T02:41:38.887Z,4.83
2022-10-20T02:44:06.503Z,4.43
2022-10-20T02:46:35.316Z,4.80
2022-10-20T02:49:02.768Z,5.40
2022-10-20T02:51:30.244Z,4.67
2022-10-20T02:53:57.757Z,4.83
2022-10-20T02:56:27.551Z,5.10
2022-10-20T02:58:57.727Z,5.67
2022-10-20T03:01:25.758Z,4.30
2022-10-20T03:03:58.498Z,4.90
2022-10-20T03:06:26.321Z,4.97
2022-10-20T03:08:53.840Z,4.77
2022-10-20T03:11:21.314Z,4.70
2022-10-20T03:13:48.767Z,4.57
2022-10-20T03:16:16.326Z,4.73
2022-10-20T03:18:43.807Z,5.33
2022-10-20T03:21:13.066Z,5.17
2022-10-20T03:23:40.601Z,4.43
2022-10-20T03:26:09.384Z,5.23
2022-10-20T03:28:36.881Z,6.20
2022-10-20T03:31:04.493Z,4.00
2022-10-20T03:33:31.982Z,5.27
2022-10-20T03:35:59.463Z,4.50
2022-10-20T03:38:28.300Z,4.80
2022-10-20T03:40:55.918Z,4.90
2022-10-20T03:43:23.422Z,4.63
2022-10-20T03:45:51.174Z,5.40
2022-10-20T03:48:18.673Z,5.17
2022-10-20T03:50:46.133Z,5.33
2022-10-20T03:53:14.218Z,5.00
2022-10-20T03:55:43.032Z,5.00
2022-10-20T03:58:10.500Z,7.27
2022-10-20T04:00:38.006Z,5.83
2022-10-20T04:03:05.471Z,5.50
2022-10-20T04:05:32.976Z,4.90
2022-10-20T04:08:00.445Z,5.37
2022-10-20T04:10:27.964Z,4.77
2022-10-20T04:12:58.839Z,5.13
2022-10-20T04:15:26.345Z,5.43
2022-10-20T04:17:53.986Z,5.40
2022-10-20T04:20:21.557Z,6.27
2022-10-20T04:22:49.078Z,4.50
2022-10-20T04:25:16.919Z,5.30
2022-10-20T04:27:44.377Z,5.13
2022-10-20T04:30:13.285Z,5.17
2022-10-20T04:32:40.816Z,5.10
2022-10-20T04:35:09.379Z,5.00
2022-10-20T04:37:37.158Z,5.67
2022-10-20T04:40:05.461Z,5.97
2022-10-20T04:42:32.999Z,5.57
2022-10-20T04:45:00.521Z,5.00
2022-10-20T04:47:32.519Z,5.97
2022-10-20T04:50:00.084Z,5.77
2022-10-20T04:52:29.416Z,5.17
2022-10-20T04:54:56.959Z,5.13
2022-10-20T04:57:24.654Z,5.57
2022-10-20T04:59:52.112Z,5.10
2022-10-20T05:02:19.640Z,5.00
2022-10-20T05:04:48.650Z,5.27
2022-10-20T05:07:16.113Z,6.17
2022-10-20T05:09:43.709Z,5.40
2022-10-20T05:12:11.237Z,6.20
2022-10-20T05:14:38.840Z,5.77
2022-10-20T05:17:09.222Z,5.70
2022-10-20T05:19:37.556Z,5.43
2022-10-20T05:22:06.372Z,6.30
2022-10-20T05:24:33.852Z,6.50
2022-10-20T05:27:01.347Z,4.80
2022-10-20T05:29:28.871Z,6.40
2022-10-20T05:31:56.329Z,4.90
2022-10-20T05:34:23.861Z,5.83
2022-10-20T05:36:53.544Z,6.20
2022-10-20T05:39:22.691Z,5.80
2022-10-20T05:41:50.180Z,5.67
2022-10-20T05:44:17.642Z,5.00
2022-10-20T05:46:45.151Z,5.57
2022-10-20T05:49:15.344Z,6.40
2022-10-20T05:51:43.113Z,5.83
2022-10-20T05:54:12.571Z,6.10
2022-10-20T05:56:41.730Z,5.97
2022-10-20T05:59:10.685Z,5.87
2022-10-20T06:01:48.057Z,5.97
2022-10-20T06:04:17.003Z,5.70
2022-10-20T06:06:44.963Z,5.33
2022-10-20T06:09:13.172Z,6.00
2022-10-20T06:11:42.021Z,5.90
2022-10-20T06:14:10.520Z,5.93
2022-10-20T06:16:38.140Z,5.80
2022-10-20T06:19:06.676Z,6.07
2022-10-20T06:21:35.416Z,6.73
2022-10-20T06:24:04.670Z,6.10
2022-10-20T06:26:33.413Z,6.77
2022-10-20T06:29:04.536Z,5.67
2022-10-20T06:31:33.773Z,7.10
2022-10-20T06:34:01.906Z,7.30
2022-10-20T06:36:29.623Z,6.43
2022-10-20T06:38:58.177Z,7.17
2022-10-20T06:41:27.242Z,9.03
2022-10-20T06:43:59.055Z,7.53
2022-10-20T06:46:29.858Z,7.40
2022-10-20T06:48:58.819Z,7.97
2022-10-20T06:51:26.653Z,8.90
2022-10-20T06:53:54.267Z,7.50
2022-10-20T06:56:23.005Z,9.17
2022-10-20T06:58:52.932Z,8.23
2022-10-20T07:01:23.215Z,8.70
2022-10-20T07:03:53.726Z,8.20
2022-10-20T07:06:23.674Z,9.40
2022-10-20T07:08:53.558Z,9.07
2022-10-20T07:11:22.746Z,8.43
2022-10-20T07:13:50.237Z,8.43
2022-10-20T07:16:19.223Z,9.30
2022-10-20T07:18:47.093Z,9.07
2022-10-20T07:21:17.941Z,8.43
2022-10-20T07:23:46.103Z,9.23
2022-10-20T07:26:15.972Z,8.30
2022-10-20T07:28:45.031Z,8.70
2022-10-20T07:31:14.907Z,7.50
2022-10-20T07:33:42.689Z,9.03
2022-10-20T07:36:16.344Z,8.40
2022-10-20T07:38:44.763Z,8.73
2022-10-20T07:41:12.398Z,9.17
2022-10-20T07:43:40.580Z,8.80
2022-10-20T07:46:08.519Z,8.67
2022-10-20T07:48:36.038Z,8.47
2022-10-20T07:51:26.678Z,9.20
2022-10-20T07:53:58.234Z,10.33
2022-10-20T07:56:29.240Z,10.20
2022-10-20T07:58:56.996Z,8.93
2022-10-20T08:01:24.642Z,10.33
2022-10-20T08:03:52.455Z,10.00
2022-10-20T08:06:21.397Z,11.70
2022-10-20T08:08:49.014Z,10.07
2022-10-20T08:11:16.796Z,11.40
2022-10-20T08:13:44.285Z,9.57
2022-10-20T08:16:13.038Z,10.73
2022-10-20T08:18:42.353Z,10.20
2022-10-20T08:21:12.870Z,10.57
2022-10-20T08:23:41.856Z,10.30
2022-10-20T08:26:11.440Z,10.07
2022-10-20T08:28:39.281Z,12.27
2022-10-20T08:31:09.796Z,11.23
2022-10-20T08:33:37.718Z,10.67
2022-10-20T08:36:06.659Z,11.77
2022-10-20T08:38:34.195Z,10.77
2022-10-20T08:41:07.319Z,11.63
2022-10-20T08:43:37.665Z,10.70
2022-10-20T08:46:05.628Z,11.50
2022-10-20T08:48:34.013Z,11.90
2022-10-20T08:51:01.567Z,9.87
2022-10-20T08:53:30.692Z,12.30
2022-10-20T08:55:58.759Z,11.60
2022-10-20T08:58:27.605Z,12.00
2022-10-20T09:00:58.052Z,11.97
2022-10-20T09:03:29.481Z,11.80
2022-10-20T09:06:01.701Z,11.10
2022-10-20T09:08:31.547Z,11.70
2022-10-20T09:10:59.563Z,10.90
2022-10-20T09:13:30.046Z,12.27
2022-10-20T09:16:00.485Z,11.97
2022-10-20T09:18:28.024Z,10.73
2022-10-20T09:20:57.269Z,11.20
2022-10-20T09:23:40.710Z,11.17
2022-10-20T09:26:24.697Z,11.73
2022-10-20T09:29:15.046Z,11.17
2022-10-20T09:31:44.817Z,12.57
2022-10-20T09:34:26.904Z,11.30
2022-10-20T09:36:59.370Z,11.30
2022-10-20T09:39:29.165Z,10.97
2022-10-20T09:44:40.472Z,11.63
2022-10-20T09:47:13.308Z,10.63
2022-10-20T09:49:40.844Z,11.23
2022-10-20T09:52:17.848Z,11.67
2022-10-20T09:54:48.110Z,10.90
2022-10-20T09:57:19.567Z,9.83
2022-10-20T09:59:49.756Z,10.73
2022-10-20T10:02:32.700Z,11.20
2022-10-20T10:05:15.899Z,10.60
2022-10-20T10:07:43.432Z,10.37
2022-10-20T10:10:28.366Z,11.60
2022-10-20T10:12:57.858Z,9.70
2022-10-20T10:15:29.529Z,10.77
2022-10-20T10:17:57.606Z,12.43
2022-10-20T10:20:34.635Z,10.80
2022-10-20T10:23:22.393Z,10.60
2022-10-20T10:25:50.351Z,10.70
2022-10-20T10:28:30.767Z,9.37
2022-10-20T10:31:21.379Z,11.13
2022-10-20T10:33:50.888Z,11.03
2022-10-20T10:36:26.754Z,10.10
2022-10-20T10:38:54.995Z,9.37
2022-10-20T10:41:28.720Z,10.70
2022-10-20T10:44:01.333Z,10.93
2022-10-20T10:46:36.869Z,10.50
2022-10-20T10:49:23.461Z,11.13
2022-10-20T10:51:59.036Z,10.70
2022-10-20T10:54:39.969Z,11.17
2022-10-20T10:57:14.574Z,9.60
2022-10-20T10:59:44.312Z,10.03
2022-10-20T11:02:43.570Z,11.90
2022-10-20T11:05:23.222Z,11.27
2022-10-20T11:07:56.220Z,11.03
2022-10-20T11:10:27.521Z,10.90
2022-10-20T11:13:11.817Z,10.57
2022-10-20T11:15:47.366Z,11.40
2022-10-20T11:18:29.900Z,10.97
2022-10-20T11:21:04.428Z,11.37
2022-10-20T11:23:53.840Z,10.97
2022-10-20T11:26:28.324Z,11.00
2022-10-20T11:28:57.945Z,10.33
2022-10-20T11:31:29.426Z,11.23
2022-10-20T11:34:05.602Z,9.97
2022-10-20T11:36:39.710Z,11.67
2022-10-20T11:39:13.059Z,11.17
2022-10-20T11:41:44.578Z,10.90
2022-10-20T11:44:15.974Z,10.50
2022-10-20T11:46:47.906Z,10.27
2022-10-20T11:49:16.865Z,10.67
2022-10-20T11:52:16.119Z,10.33
2022-10-20T11:54:59.310Z,9.23
2022-10-20T11:57:38.307Z,9.03
2022-10-20T12:00:17.381Z,9.40
2022-10-20T12:03:08.616Z,9.60
2022-10-20T12:05:48.563Z,10.00
2022-10-20T12:08:29.801Z,10.50
2022-10-20T12:11:03.695Z,10.17
2022-10-20T12:13:37.609Z,11.10
2022-10-20T12:16:05.539Z,11.00
2022-10-20T12:18:33.753Z,11.07
2022-10-20T12:21:03.959Z,9.43
2022-10-20T12:23:54.758Z,9.20
2022-10-20T12:26:43.846Z,10.93
2022-10-20T12:30:02.857Z,11.13
2022-10-20T12:33:00.980Z,10.30
2022-10-20T12:36:01.007Z,10.87
2022-10-20T12:38:31.055Z,11.00
2022-10-20T12:41:00.563Z,10.20
2022-10-20T12:43:34.323Z,10.17
2022-10-20T12:46:07.483Z,10.40
2022-10-20T12:48:36.335Z,13.17
2022-10-20T12:51:08.553Z,9.87
2022-10-20T12:53:37.422Z,11.30
2022-10-20T12:56:08.041Z,11.60
2022-10-20T12:58:36.345Z,11.33
2022-10-20T13:01:08.454Z,9.60
2022-10-20T13:03:38.914Z,10.33
2022-10-20T13:06:39.792Z,10.00
2022-10-20T13:09:24.311Z,9.67
2022-10-20T13:12:24.057Z,11.30
2022-10-20T13:14:55.704Z,10.90
2022-10-20T13:17:51.292Z,9.93
2022-10-20T13:20:25.451Z,11.97
2022-10-20T13:22:53.959Z,10.40
2022-10-20T13:25:41.842Z,10.90
2022-10-20T13:28:18.320Z,11.50
2022-10-20T13:31:01.851Z,10.50
2022-10-20T13:33:58.491Z,10.97
2022-10-20T13:36:28.704Z,10.57
2022-10-20T13:39:01.886Z,10.37
2022-10-20T13:41:35.239Z,10.70
2022-10-20T13:44:11.061Z,11.40
2022-10-20T13:46:47.661Z,10.47
2022-10-20T13:49:27.306Z,9.93
2022-10-20T13:51:56.722Z,10.07
2022-10-20T13:54:26.394Z,10.70
2022-10-20T13:56:55.809Z,11.33
2022-10-20T13:59:24.888Z,10.40
2022-10-20T14:01:54.491Z,10.83
2022-10-20T14:04:30.567Z,11.80
2022-10-20T14:07:03.519Z,12.40
2022-10-20T14:09:31.111Z,11.80
2022-10-20T14:12:03.489Z,11.47
2022-10-20T14:14:32.032Z,12.17
2022-10-20T14:17:00.992Z,11.53
2022-10-20T14:19:30.431Z,11.40
2022-10-20T14:22:00.084Z,12.10
2022-10-20T14:24:31.737Z,12.90
2022-10-20T14:27:01.904Z,12.10
2022-10-20T14:29:31.002Z,11.73
2022-10-20T14:31:58.974Z,11.60
2022-10-20T14:34:36.537Z,12.40
2022-10-20T14:37:05.269Z,13.00
2022-10-20T14:39:36.305Z,13.20
2022-10-20T14:42:06.837Z,12.23
2022-10-20T14:44:36.055Z,13.60
2022-10-20T14:47:05.925Z,13.20
2022-10-20T14:49:35.751Z,13.00
2022-10-20T14:52:04.810Z,13.23
2022-10-20T14:54:37.813Z,13.23
2022-10-20T14:57:39.749Z,14.57
2022-10-20T15:00:38.320Z,15.03
2022-10-20T15:03:07.821Z,11.97
2022-10-20T15:05:39.742Z,14.13
2022-10-20T15:08:17.458Z,13.33
2022-10-20T15:10:45.395Z,13.03
2022-10-20T15:13:30.776Z,13.67
2022-10-20T15:16:01.113Z,14.50
2022-10-20T15:18:29.807Z,13.33
2022-10-20T15:20:57.740Z,13.30
2022-10-20T15:23:27.296Z,14.17
2022-10-20T15:25:57.067Z,15.47
2022-10-20T15:28:32.201Z,16.10
2022-10-20T15:31:02.436Z,15.70
2022-10-20T15:33:30.009Z,19.73
2022-10-20T15:36:00.301Z,19.00
2022-10-20T15:38:27.868Z,15.97
2022-10-20T15:40:55.554Z,20.17
2022-10-20T15:43:23.165Z,13.43
2022-10-20T15:45:54.342Z,16.93
2022-10-20T15:48:25.808Z,22.33
2022-10-20T15:50:54.122Z,22.23
2022-10-20T15:53:22.165Z,15.60
2022-10-20T15:55:49.917Z,20.10
2022-10-20T15:58:17.555Z,19.87
2022-10-20T16:00:45.157Z,16.80
2022-10-20T16:03:16.413Z,18.00
2022-10-20T16:05:45.527Z,17.30
2022-10-20T16:10:43.491Z,15.90
2022-10-20T16:13:12.030Z,16.47
2022-10-20T16:15:39.684Z,18.30
2022-10-20T16:18:09.689Z,19.47
2022-10-20T16:20:38.026Z,17.93
2022-10-20T16:23:07.068Z,19.77
2022-10-20T16:25:34.762Z,20.93
2022-10-20T16:28:02.538Z,17.87
2022-10-20T16:30:30.300Z,16.43
2022-10-20T16:32:57.943Z,19.20
2022-10-20T16:35:25.581Z,17.27
2022-10-20T16:37:53.225Z,16.70
2022-10-20T16:40:22.203Z,16.03
2022-10-20T16:42:49.826Z,22.57
2022-10-20T16:45:17.706Z,18.80
2022-10-20T16:47:45.332Z,18.10
2022-10-20T16:50:13.284Z,17.60
2022-10-20T16:52:40.982Z,15.07
2022-10-20T16:55:09.633Z,17.70
2022-10-20T16:57:39.793Z,17.37
2022-10-20T17:00:09.880Z,16.83
2022-10-20T17:02:38.093Z,19.97
2022-10-20T17:05:09.134Z,18.30
2022-10-20T17:07:37.760Z,17.93
2022-10-20T17:10:06.366Z,16.73
2022-10-20T17:12:33.833Z,17.43
2022-10-20T17:15:02.671Z,18.33
2022-10-20T17:17:30.300Z,15.53
2022-10-20T17:19:57.767Z,20.87
2022-10-20T17:22:25.243Z,18.93
2022-10-20T17:24:52.770Z,18.73
2022-10-20T17:27:20.255Z,20.30
2022-10-20T17:29:48.255Z,24.73
2022-10-20T17:32:18.271Z,21.03
2022-10-20T17:34:45.919Z,18.77
2022-10-20T17:37:13.488Z,17.50
2022-10-20T17:39:40.959Z,20.50
2022-10-20T17:42:08.815Z,22.43
2022-10-20T17:44:36.593Z,19.83
2022-10-20T17:47:04.425Z,17.80
2022-10-20T17:49:35.023Z,20.43
2022-10-20T17:52:02.599Z,18.43
2022-10-20T17:54:30.195Z,17.23
2022-10-20T17:56:58.101Z,16.90
2022-10-20T17:59:25.839Z,15.73
2022-10-20T18:01:54.046Z,18.80
2022-10-20T18:04:21.883Z,17.00
2022-10-20T18:06:50.894Z,17.10
2022-10-20T18:09:19.535Z,16.60
2022-10-20T18:11:48.767Z,15.30
2022-10-20T18:14:16.944Z,17.97
2022-10-20T18:16:44.954Z,17.23
2022-10-20T18:19:14.988Z,18.20
2022-10-20T18:21:42.939Z,18.47
2022-10-20T18:24:14.555Z,18.00
2022-10-20T18:26:42.500Z,19.17
2022-10-20T18:29:14.109Z,19.07
2022-10-20T18:31:43.042Z,19.90
2022-10-20T18:34:12.754Z,17.73
2022-10-20T18:36:44.941Z,17.27
2022-10-20T18:39:16.291Z,16.87
2022-10-20T18:41:45.454Z,18.40
2022-10-20T18:44:14.812Z,18.83
2022-10-20T18:46:43.001Z,17.87
2022-10-20T18:49:12.769Z,17.60
2022-10-20T18:51:41.027Z,18.40
2022-10-20T18:54:09.604Z,17.73
2022-10-20T18:56:38.774Z,16.70
2022-10-20T18:59:08.660Z,18.07
2022-10-20T19:01:37.632Z,17.00
2022-10-20T19:04:06.191Z,18.93
2022-10-20T19:06:36.561Z,18.43
2022-10-20T19:09:06.530Z,18.90
2022-10-20T19:11:36.308Z,18.30
2022-10-20T19:14:09.527Z,17.77
2022-10-20T19:16:37.471Z,20.07
2022-10-20T19:19:06.553Z,16.47
2022-10-20T19:21:34.544Z,17.83
2022-10-20T19:24:04.466Z,17.47
2022-10-20T19:26:33.586Z,18.93
2022-10-20T19:29:02.765Z,17.40
2022-10-20T19:31:36.684Z,18.40
2022-10-20T19:34:07.695Z,20.93
2022-10-20T19:36:35.837Z,24.40
2022-10-20T19:39:05.143Z,23.83
2022-10-20T19:41:32.957Z,22.63
2022-10-20T19:44:01.081Z,22.47
2022-10-20T19:46:29.385Z,17.60
2022-10-20T19:48:58.570Z,17.70
2022-10-20T19:51:26.329Z,18.33
2022-10-20T19:53:53.889Z,19.30
2022-10-20T19:56:21.647Z,18.40
2022-10-20T19:58:49.575Z,18.00
2022-10-20T20:01:17.921Z,18.50
2022-10-20T20:03:46.004Z,17.30
2022-10-20T20:06:16.580Z,18.07
2022-10-20T20:08:45.528Z,19.07
2022-10-20T20:11:22.794Z,17.50
2022-10-20T20:13:52.459Z,18.40
2022-10-20T20:16:20.722Z,20.10
2022-10-20T20:18:49.267Z,19.60
2022-10-20T20:21:18.754Z,17.33
2022-10-20T20:23:58.872Z,18.77
2022-10-20T20:26:28.326Z,16.27
2022-10-20T20:28:56.352Z,17.40
2022-10-20T20:31:24.666Z,18.80
2022-10-20T20:33:53.041Z,17.30
2022-10-20T20:36:22.507Z,15.40
2022-10-20T20:38:52.602Z,16.97
2022-10-20T20:41:24.512Z,16.30
2022-10-20T20:43:52.172Z,17.03
2022-10-20T20:46:22.637Z,17.03
2022-10-20T20:48:53.843Z,17.30
2022-10-20T20:51:24.414Z,17.50
2022-10-20T20:53:51.992Z,17.73
2022-10-20T20:56:21.939Z,16.93
2022-10-20T20:58:55.267Z,18.40
2022-10-20T21:01:24.392Z,18.00
2022-10-20T21:03:54.011Z,18.43
2022-10-20T21:06:28.798Z,17.70
2022-10-20T21:09:01.905Z,16.87
2022-10-20T21:11:29.645Z,17.17
2022-10-20T21:13:58.963Z,20.50
2022-10-20T21:16:29.342Z,19.00
2022-10-20T21:18:58.304Z,17.00
2022-10-20T21:21:28.625Z,17.57
2022-10-20T21:23:57.111Z,17.53
2022-10-20T21:26:25.062Z,17.27
2022-10-20T21:28:52.946Z,15.60
2022-10-20T21:31:22.658Z,16.30
2022-10-20T21:33:51.372Z,15.40
2022-10-20T21:36:20.234Z,16.53
2022-10-20T21:38:49.406Z,16.03
2022-10-20T21:41:18.513Z,17.90
2022-10-20T21:43:47.481Z,15.63
2022-10-20T21:46:16.654Z,17.70
2022-10-20T21:48:45.317Z,16.90
2022-10-20T21:51:15.499Z,17.97
2022-10-20T21:53:43.197Z,16.50
2022-10-20T21:56:12.552Z,15.87
2022-10-20T21:58:40.290Z,16.20
2022-10-20T22:01:11.752Z,15.67
2022-10-20T22:03:39.738Z,15.00
2022-10-20T22:06:07.862Z,15.80
2022-10-20T22:08:36.480Z,17.23
2022-10-20T22:11:05.463Z,16.47
2022-10-20T22:13:34.464Z,16.80
2022-10-20T22:16:02.225Z,17.03
2022-10-20T22:18:29.772Z,16.57
2022-10-20T22:20:57.428Z,15.33
2022-10-20T22:23:25.114Z,15.57
2022-10-20T22:25:54.213Z,16.07
2022-10-20T22:28:21.797Z,15.53
2022-10-20T22:30:50.767Z,16.30
2022-10-20T22:33:18.723Z,15.77
2022-10-20T22:35:46.199Z,15.67
2022-10-20T22:38:13.779Z,16.27
2022-10-20T22:40:41.431Z,15.93
2022-10-20T22:43:08.883Z,15.37
2022-10-20T22:45:36.368Z,16.27
2022-10-20T22:48:05.523Z,17.00
2022-10-20T22:50:32.976Z,16.10
2022-10-20T22:53:00.428Z,16.40
2022-10-20T22:55:27.882Z,15.00
2022-10-20T22:57:55.433Z,14.77
2022-10-20T23:00:22.953Z,15.53
2022-10-20T23:02:50.427Z,14.70
2022-10-20T23:05:19.301Z,14.70
2022-10-20T23:07:46.825Z,13.73
2022-10-20T23:10:14.337Z,15.37
2022-10-20T23:12:41.832Z,14.80
2022-10-20T23:15:09.909Z,16.53
2022-10-20T23:17:37.743Z,15.80
2022-10-20T23:20:06.011Z,16.67
2022-10-20T23:22:34.855Z,14.70
2022-10-20T23:25:02.303Z,14.57
2022-10-20T23:27:29.879Z,15.43
2022-10-20T23:29:57.375Z,15.07
2022-10-20T23:32:24.901Z,14.77
2022-10-20T23:34:52.358Z,13.80
2022-10-20T23:37:21.781Z,15.27
2022-10-20T23:39:50.751Z,14.83
2022-10-20T23:42:18.543Z,15.97
2022-10-20T23:44:46.039Z,15.00
2022-10-20T23:47:13.527Z,16.23
2022-10-20T23:49:40.957Z,15.27
2022-10-20T23:52:08.433Z,16.10
2022-10-20T23:54:35.896Z,16.80
2022-10-20T23:57:04.756Z,14.83
2022-10-20T23:59:32.210Z,15.87
